sensor_id;sensor_type;location;lat;lon;timestamp;pressure;altitude;pressure_sealevel;temperature;humidity
69784;BME280;57054;51.978;4.498;2022-11-03T00:01:45;101277.66;;;11.70;87.11
69784;BME280;57054;51.978;4.498;2022-11-03T00:04:11;101274.25;;;11.68;86.82
69784;BME280;57054;51.978;4.498;2022-11-03T00:06:37;101271.56;;;11.70;87.33
69784;BME280;57054;51.978;4.498;2022-11-03T00:09:04;101262.75;;;11.71;87.69
69784;BME280;57054;51.978;4.498;2022-11-03T00:11:33;101266.25;;;11.71;88.19
69784;BME280;57054;51.978;4.498;2022-11-03T00:13:59;101265.38;;;11.71;87.80
69784;BME280;57054;51.978;4.498;2022-11-03T00:16:24;101259.28;;;11.70;87.53
69784;BME280;57054;51.978;4.498;2022-11-03T00:18:50;101254.94;;;11.69;87.54
69784;BME280;57054;51.978;4.498;2022-11-03T00:21:15;101251.41;;;11.70;87.54
69784;BME280;57054;51.978;4.498;2022-11-03T00:23:41;101243.50;;;11.72;88.41
69784;BME280;57054;51.978;4.498;2022-11-03T00:28:32;101245.28;;;11.71;88.29
69784;BME280;57054;51.978;4.498;2022-11-03T00:30:58;101240.03;;;11.71;88.02
69784;BME280;57054;51.978;4.498;2022-11-03T00:33:24;101239.16;;;11.71;88.09
69784;BME280;57054;51.978;4.498;2022-11-03T00:36:00;101238.31;;;11.70;87.95
69784;BME280;57054;51.978;4.498;2022-11-03T00:38:25;101236.56;;;11.69;87.36
69784;BME280;57054;51.978;4.498;2022-11-03T00:40:54;101235.69;;;11.70;87.88
69784;BME280;57054;51.978;4.498;2022-11-03T00:43:21;101233.91;;;11.71;88.20
69784;BME280;57054;51.978;4.498;2022-11-03T00:45:47;101236.53;;;11.71;88.03
69784;BME280;57054;51.978;4.498;2022-11-03T00:48:12;101228.72;;;11.69;87.79
69784;BME280;57054;51.978;4.498;2022-11-03T00:50:53;101223.47;;;11.69;88.13
69784;BME280;57054;51.978;4.498;2022-11-03T00:53:18;101234.84;;;11.70;88.19
69784;BME280;57054;51.978;4.498;2022-11-03T00:55:47;101219.16;;;11.68;88.27
69784;BME280;57054;51.978;4.498;2022-11-03T00:58:13;101214.69;;;11.70;88.61
69784;BME280;57054;51.978;4.498;2022-11-03T01:00:38;101210.34;;;11.69;88.00
69784;BME280;57054;51.978;4.498;2022-11-03T01:03:03;101202.47;;;11.69;88.27
69784;BME280;57054;51.978;4.498;2022-11-03T01:05:28;101207.66;;;11.71;88.69
69784;BME280;57054;51.978;4.498;2022-11-03T01:08:13;101208.53;;;11.71;89.11
69784;BME280;57054;51.978;4.498;2022-11-03T01:10:38;101213.78;;;11.71;89.03
69784;BME280;57054;51.978;4.498;2022-11-03T01:13:23;101204.97;;;11.72;89.18
69784;BME280;57054;51.978;4.498;2022-11-03T01:15:49;101208.44;;;11.73;89.00
69784;BME280;57054;51.978;4.498;2022-11-03T01:18:14;101205.91;;;11.71;88.16
69784;BME280;57054;51.978;4.498;2022-11-03T01:20:39;101206.81;;;11.70;88.49
69784;BME280;57054;51.978;4.498;2022-11-03T01:23:04;101201.56;;;11.70;88.52
69784;BME280;57054;51.978;4.498;2022-11-03T01:25:30;101201.56;;;11.70;88.78
69784;BME280;57054;51.978;4.498;2022-11-03T01:27:55;101188.41;;;11.72;89.04
69784;BME280;57054;51.978;4.498;2022-11-03T01:30:20;101196.28;;;11.72;89.42
69784;BME280;57054;51.978;4.498;2022-11-03T01:32:45;101189.28;;;11.71;89.53
69784;BME280;57054;51.978;4.498;2022-11-03T01:35:11;101183.16;;;11.72;89.16
69784;BME280;57054;51.978;4.498;2022-11-03T01:37:36;101182.31;;;11.71;88.71
69784;BME280;57054;51.978;4.498;2022-11-03T01:40:02;101181.44;;;11.71;88.26
69784;BME280;57054;51.978;4.498;2022-11-03T01:42:27;101172.66;;;11.72;88.75
69784;BME280;57054;51.978;4.498;2022-11-03T01:44:52;101181.44;;;11.71;89.42
69784;BME280;57054;51.978;4.498;2022-11-03T01:47:21;101179.69;;;11.71;89.38
69784;BME280;57054;51.978;4.498;2022-11-03T01:49:51;101174.44;;;11.71;89.56
69784;BME280;57054;51.978;4.498;2022-11-03T01:52:41;101166.56;;;11.71;89.62
69784;BME280;57054;51.978;4.498;2022-11-03T01:55:09;101167.41;;;11.72;89.61
69784;BME280;57054;51.978;4.498;2022-11-03T01:57:42;101160.38;;;11.72;89.75
69784;BME280;57054;51.978;4.498;2022-11-03T02:00:09;101160.38;;;11.72;89.83
69784;BME280;57054;51.978;4.498;2022-11-03T02:05:09;101156.91;;;11.72;89.68
69784;BME280;57054;51.978;4.498;2022-11-03T02:10:11;101141.06;;;11.75;90.24
69784;BME280;57054;51.978;4.498;2022-11-03T02:12:36;101134.09;;;11.74;90.28
69784;BME280;57054;51.978;4.498;2022-11-03T02:15:03;101135.81;;;11.75;90.11
69784;BME280;57054;51.978;4.498;2022-11-03T02:17:29;101134.94;;;11.75;90.07
69784;BME280;57054;51.978;4.498;2022-11-03T02:25:10;101115.66;;;11.76;90.51
69784;BME280;57054;51.978;4.498;2022-11-03T02:27:38;101107.78;;;11.76;90.49
69784;BME280;57054;51.978;4.498;2022-11-03T02:30:03;101106.84;;;11.77;90.54
69784;BME280;57054;51.978;4.498;2022-11-03T02:32:32;101098.97;;;11.77;90.57
69784;BME280;57054;51.978;4.498;2022-11-03T02:37:59;101096.34;;;11.77;90.41
69784;BME280;57054;51.978;4.498;2022-11-03T02:40:28;101093.72;;;11.77;90.56
69784;BME280;57054;51.978;4.498;2022-11-03T02:42:55;101092.84;;;11.78;90.74
69784;BME280;57054;51.978;4.498;2022-11-03T02:45:23;101078.00;;;11.77;90.89
69784;BME280;57054;51.978;4.498;2022-11-03T02:47:49;101070.91;;;11.79;91.02
69784;BME280;57054;51.978;4.498;2022-11-03T02:50:15;101075.31;;;11.78;90.81
69784;BME280;57054;51.978;4.498;2022-11-03T02:52:42;101063.03;;;11.79;90.98
69784;BME280;57054;51.978;4.498;2022-11-03T02:55:09;101061.28;;;11.79;91.28
69784;BME280;57054;51.978;4.498;2022-11-03T02:57:37;101059.50;;;11.80;91.23
69784;BME280;57054;51.978;4.498;2022-11-03T03:00:05;101056.88;;;11.80;91.20
69784;BME280;57054;51.978;4.498;2022-11-03T03:05:14;101036.72;;;11.80;91.24
69784;BME280;57054;51.978;4.498;2022-11-03T03:07:43;101047.22;;;11.80;90.94
69784;BME280;57054;51.978;4.498;2022-11-03T03:12:36;101035.88;;;11.80;91.28
69784;BME280;57054;51.978;4.498;2022-11-03T03:15:03;101028.03;;;11.80;91.12
69784;BME280;57054;51.978;4.498;2022-11-03T03:17:31;101034.09;;;11.80;91.50
69784;BME280;57054;51.978;4.498;2022-11-03T03:22:34;101021.88;;;11.81;91.52
69784;BME280;57054;51.978;4.498;2022-11-03T03:25:02;101023.63;;;11.80;91.24
69784;BME280;57054;51.978;4.498;2022-11-03T03:27:29;101015.75;;;11.80;91.29
69784;BME280;57054;51.978;4.498;2022-11-03T03:29:57;101021.94;;;11.79;91.18
69784;BME280;57054;51.978;4.498;2022-11-03T03:32:24;101015.75;;;11.80;91.60
69784;BME280;57054;51.978;4.498;2022-11-03T03:34:52;101012.22;;;11.81;91.57
69784;BME280;57054;51.978;4.498;2022-11-03T03:37:18;101010.44;;;11.82;91.68
69784;BME280;57054;51.978;4.498;2022-11-03T03:39:46;101006.91;;;11.83;91.77
69784;BME280;57054;51.978;4.498;2022-11-03T03:42:12;101008.75;;;11.81;91.85
69784;BME280;57054;51.978;4.498;2022-11-03T03:44:39;101008.75;;;11.81;91.36
69784;BME280;57054;51.978;4.498;2022-11-03T03:47:06;100999.09;;;11.81;91.34
69784;BME280;57054;51.978;4.498;2022-11-03T03:49:34;101003.50;;;11.81;91.21
69784;BME280;57054;51.978;4.498;2022-11-03T03:51:59;100998.25;;;11.81;91.27
69784;BME280;57054;51.978;4.498;2022-11-03T03:54:25;100990.38;;;11.81;91.24
69784;BME280;57054;51.978;4.498;2022-11-03T03:56:52;100987.75;;;11.81;91.61
69784;BME280;57054;51.978;4.498;2022-11-03T03:59:20;100988.59;;;11.81;91.78
69784;BME280;57054;51.978;4.498;2022-11-03T04:01:45;100992.06;;;11.82;91.65
69784;BME280;57054;51.978;4.498;2022-11-03T04:04:10;100985.97;;;11.81;91.64
69784;BME280;57054;51.978;4.498;2022-11-03T04:06:35;100985.97;;;11.81;91.28
69784;BME280;57054;51.978;4.498;2022-11-03T04:09:01;100993.78;;;11.83;91.69
69784;BME280;57054;51.978;4.498;2022-11-03T04:11:26;100986.81;;;11.82;91.56
69784;BME280;57054;51.978;4.498;2022-11-03T04:14:10;100985.91;;;11.83;91.52
69784;BME280;57054;51.978;4.498;2022-11-03T04:16:54;100988.53;;;11.83;91.72
69784;BME280;57054;51.978;4.498;2022-11-03T04:19:38;100976.31;;;11.82;91.58
69784;BME280;57054;51.978;4.498;2022-11-03T04:22:22;100976.25;;;11.83;91.66
69784;BME280;57054;51.978;4.498;2022-11-03T04:24:48;100981.50;;;11.83;91.35
69784;BME280;57054;51.978;4.498;2022-11-03T04:29:39;100960.56;;;11.82;91.62
69784;BME280;57054;51.978;4.498;2022-11-03T04:32:15;100962.34;;;11.81;91.89
69784;BME280;57054;51.978;4.498;2022-11-03T04:34:40;100964.91;;;11.83;91.66
69784;BME280;57054;51.978;4.498;2022-11-03T04:37:10;100955.31;;;11.82;91.59
69784;BME280;57054;51.978;4.498;2022-11-03T04:39:36;100960.50;;;11.83;91.98
69784;BME280;57054;51.978;4.498;2022-11-03T04:42:01;100952.66;;;11.83;91.82
69784;BME280;57054;51.978;4.498;2022-11-03T04:44:26;100951.81;;;11.83;91.72
69784;BME280;57054;51.978;4.498;2022-11-03T04:46:52;100943.94;;;11.83;91.95
69784;BME280;57054;51.978;4.498;2022-11-03T04:49:20;100944.00;;;11.81;91.32
69784;BME280;57054;51.978;4.498;2022-11-03T04:51:46;100941.38;;;11.81;91.47
69784;BME280;57054;51.978;4.498;2022-11-03T04:54:12;100932.66;;;11.81;91.42
69784;BME280;57054;51.978;4.498;2022-11-03T04:56:39;100937.91;;;11.81;91.66
69784;BME280;57054;51.978;4.498;2022-11-03T04:59:09;100918.59;;;11.82;91.87
69784;BME280;57054;51.978;4.498;2022-11-03T05:01:34;100923.84;;;11.82;91.83
69784;BME280;57054;51.978;4.498;2022-11-03T05:04:00;100914.13;;;11.84;91.90
69784;BME280;57054;51.978;4.498;2022-11-03T05:06:26;100915.06;;;11.83;92.18
69784;BME280;57054;51.978;4.498;2022-11-03T05:08:52;100909.81;;;11.83;91.88
69784;BME280;57054;51.978;4.498;2022-11-03T05:13:50;100896.69;;;11.83;92.23
69784;BME280;57054;51.978;4.498;2022-11-03T05:16:16;100894.84;;;11.85;92.04
69784;BME280;57054;51.978;4.498;2022-11-03T05:18:42;100894.84;;;11.85;92.25
69784;BME280;57054;51.978;4.498;2022-11-03T05:21:10;100893.91;;;11.86;92.37
69784;BME280;57054;51.978;4.498;2022-11-03T05:23:40;100890.44;;;11.85;92.21
69784;BME280;57054;51.978;4.498;2022-11-03T05:26:09;100894.78;;;11.86;92.22
69784;BME280;57054;51.978;4.498;2022-11-03T05:28:38;100879.88;;;11.87;92.13
69784;BME280;57054;51.978;4.498;2022-11-03T05:31:15;100871.09;;;11.88;92.50
69784;BME280;57054;51.978;4.498;2022-11-03T05:33:44;100867.59;;;11.87;92.36
69784;BME280;57054;51.978;4.498;2022-11-03T05:36:12;100867.53;;;11.89;92.48
69784;BME280;57054;51.978;4.498;2022-11-03T05:38:38;100862.28;;;11.89;92.77
69784;BME280;57054;51.978;4.498;2022-11-03T05:41:25;100861.41;;;11.90;92.81
69784;BME280;57054;51.978;4.498;2022-11-03T05:43:58;100862.25;;;11.90;92.54
69784;BME280;57054;51.978;4.498;2022-11-03T05:46:26;100860.47;;;11.91;92.57
69784;BME280;57054;51.978;4.498;2022-11-03T05:48:51;100855.22;;;11.91;93.02
69784;BME280;57054;51.978;4.498;2022-11-03T05:51:20;100847.34;;;11.91;93.10
69784;BME280;57054;51.978;4.498;2022-11-03T05:53:47;100849.06;;;11.92;93.05
69784;BME280;57054;51.978;4.498;2022-11-03T05:56:17;100849.91;;;11.93;93.12
69784;BME280;57054;51.978;4.498;2022-11-03T05:58:43;100852.53;;;11.93;92.93
69784;BME280;57054;51.978;4.498;2022-11-03T06:01:12;100853.38;;;11.93;92.78
69784;BME280;57054;51.978;4.498;2022-11-03T06:03:40;100850.75;;;11.93;92.73
69784;BME280;57054;51.978;4.498;2022-11-03T06:06:22;100846.38;;;11.94;92.98
69784;BME280;57054;51.978;4.498;2022-11-03T06:08:48;100846.38;;;11.94;93.12
69784;BME280;57054;51.978;4.498;2022-11-03T06:11:24;100839.41;;;11.93;93.19
69784;BME280;57054;51.978;4.498;2022-11-03T06:13:51;100829.75;;;11.93;93.19
69784;BME280;57054;51.978;4.498;2022-11-03T06:16:31;100841.13;;;11.94;93.33
69784;BME280;57054;51.978;4.498;2022-11-03T06:18:58;100835.88;;;11.94;93.03
69784;BME280;57054;51.978;4.498;2022-11-03T06:21:24;100834.09;;;11.94;93.22
69784;BME280;57054;51.978;4.498;2022-11-03T06:23:51;100827.94;;;11.95;93.17
69784;BME280;57054;51.978;4.498;2022-11-03T06:26:20;100828.84;;;11.94;93.38
69784;BME280;57054;51.978;4.498;2022-11-03T06:28:46;100819.19;;;11.95;93.21
69784;BME280;57054;51.978;4.498;2022-11-03T06:31:17;100810.47;;;11.94;93.04
69784;BME280;57054;51.978;4.498;2022-11-03T06:33:43;100817.44;;;11.95;93.10
69784;BME280;57054;51.978;4.498;2022-11-03T06:36:15;100820.91;;;11.96;93.45
69784;BME280;57054;51.978;4.498;2022-11-03T06:38:42;100814.81;;;11.95;93.59
69784;BME280;57054;51.978;4.498;2022-11-03T06:44:46;100813.03;;;11.96;93.45
69784;BME280;57054;51.978;4.498;2022-11-03T06:46:55;100806.06;;;11.95;93.44
69784;BME280;57054;51.978;4.498;2022-11-03T06:49:24;100796.44;;;11.95;93.43
69784;BME280;57054;51.978;4.498;2022-11-03T06:51:51;100785.94;;;11.95;93.26
69784;BME280;57054;51.978;4.498;2022-11-03T06:54:16;100798.13;;;11.96;92.85
69784;BME280;57054;51.978;4.498;2022-11-03T06:56:41;100797.38;;;11.94;93.18
69784;BME280;57054;51.978;4.498;2022-11-03T06:59:08;100797.28;;;11.96;92.92
69784;BME280;57054;51.978;4.498;2022-11-03T07:01:34;100791.28;;;11.94;92.67
69784;BME280;57054;51.978;4.498;2022-11-03T07:04:17;100799.16;;;11.94;92.80
69784;BME280;57054;51.978;4.498;2022-11-03T07:06:44;100795.66;;;11.93;93.10
69784;BME280;57054;51.978;4.498;2022-11-03T07:09:28;100788.66;;;11.94;92.86
69784;BME280;57054;51.978;4.498;2022-11-03T07:11:57;100787.78;;;11.93;92.81
69784;BME280;57054;51.978;4.498;2022-11-03T07:14:27;100790.31;;;11.95;93.30
69784;BME280;57054;51.978;4.498;2022-11-03T07:16:53;100782.47;;;11.95;93.16
69784;BME280;57054;51.978;4.498;2022-11-03T07:21:52;100773.75;;;11.94;93.25
69784;BME280;57054;51.978;4.498;2022-11-03T07:24:23;100775.47;;;11.95;93.43
69784;BME280;57054;51.978;4.498;2022-11-03T07:26:53;100775.47;;;11.95;93.45
69784;BME280;57054;51.978;4.498;2022-11-03T07:29:20;100772.84;;;11.95;93.28
69784;BME280;57054;51.978;4.498;2022-11-03T07:31:47;100787.63;;;11.96;93.56
69784;BME280;57054;51.978;4.498;2022-11-03T07:34:14;100790.25;;;11.96;93.43
69784;BME280;57054;51.978;4.498;2022-11-03T07:36:43;100775.34;;;11.97;93.25
69784;BME280;57054;51.978;4.498;2022-11-03T07:39:10;100784.09;;;11.97;93.01
69784;BME280;57054;51.978;4.498;2022-11-03T07:41:38;100783.22;;;11.97;92.93
69784;BME280;57054;51.978;4.498;2022-11-03T07:44:04;100781.47;;;11.97;93.33
69784;BME280;57054;51.978;4.498;2022-11-03T07:46:29;100784.94;;;11.98;93.29
69784;BME280;57054;51.978;4.498;2022-11-03T07:48:55;100783.22;;;11.97;93.05
69784;BME280;57054;51.978;4.498;2022-11-03T07:51:25;100767.41;;;11.98;93.32
69784;BME280;57054;51.978;4.498;2022-11-03T07:53:54;100771.75;;;11.99;93.36
69784;BME280;57054;51.978;4.498;2022-11-03T07:56:24;100760.38;;;11.99;93.33
69784;BME280;57054;51.978;4.498;2022-11-03T07:58:51;100770.81;;;12.00;93.10
69784;BME280;57054;51.978;4.498;2022-11-03T08:01:21;100763.88;;;11.99;93.38
69784;BME280;57054;51.978;4.498;2022-11-03T08:03:46;100748.97;;;12.00;93.07
69784;BME280;57054;51.978;4.498;2022-11-03T08:06:12;100745.44;;;12.01;93.29
69784;BME280;57054;51.978;4.498;2022-11-03T08:08:38;100736.69;;;12.00;93.38
69784;BME280;57054;51.978;4.498;2022-11-03T08:11:03;100733.16;;;12.01;93.26
69784;BME280;57054;51.978;4.498;2022-11-03T08:13:29;100729.59;;;12.02;93.55
69784;BME280;57054;51.978;4.498;2022-11-03T08:15:55;100716.47;;;12.02;93.69
69784;BME280;57054;51.978;4.498;2022-11-03T08:18:20;100713.84;;;12.02;93.58
69784;BME280;57054;51.978;4.498;2022-11-03T08:20:45;100719.97;;;12.03;93.73
69784;BME280;57054;51.978;4.498;2022-11-03T08:23:10;100719.97;;;12.03;93.76
69784;BME280;57054;51.978;4.498;2022-11-03T08:25:36;100707.69;;;12.03;93.67
69784;BME280;57054;51.978;4.498;2022-11-03T08:28:01;100691.09;;;12.03;93.79
69784;BME280;57054;51.978;4.498;2022-11-03T08:30:28;100697.94;;;12.05;93.68
69784;BME280;57054;51.978;4.498;2022-11-03T08:32:53;100691.03;;;12.04;93.83
69784;BME280;57054;51.978;4.498;2022-11-03T08:35:18;100681.38;;;12.05;93.77
69784;BME280;57054;51.978;4.498;2022-11-03T08:37:43;100671.72;;;12.05;94.06
69784;BME280;57054;51.978;4.498;2022-11-03T08:40:09;100661.22;;;12.05;93.94
69784;BME280;57054;51.978;4.498;2022-11-03T08:42:34;100653.34;;;12.05;93.77
69784;BME280;57054;51.978;4.498;2022-11-03T08:45:00;100646.31;;;12.06;93.71
69784;BME280;57054;51.978;4.498;2022-11-03T08:47:25;100648.00;;;12.07;94.00
69784;BME280;57054;51.978;4.498;2022-11-03T08:49:50;100644.47;;;12.08;94.08
69784;BME280;57054;51.978;4.498;2022-11-03T08:52:16;100634.81;;;12.08;94.05
69784;BME280;57054;51.978;4.498;2022-11-03T08:54:41;100630.41;;;12.09;93.90
69784;BME280;57054;51.978;4.498;2022-11-03T08:57:06;100636.50;;;12.09;93.90
69784;BME280;57054;51.978;4.498;2022-11-03T08:59:31;100628.63;;;12.09;94.14
69784;BME280;57054;51.978;4.498;2022-11-03T09:01:57;100625.09;;;12.10;93.99
69784;BME280;57054;51.978;4.498;2022-11-03T09:04:22;100620.66;;;12.11;93.93
69784;BME280;57054;51.978;4.498;2022-11-03T09:06:47;100604.00;;;12.12;93.81
69784;BME280;57054;51.978;4.498;2022-11-03T09:09:12;100617.97;;;12.13;93.69
69784;BME280;57054;51.978;4.498;2022-11-03T09:11:38;100606.56;;;12.14;93.71
69784;BME280;57054;51.978;4.498;2022-11-03T09:14:03;100599.53;;;12.14;94.00
69784;BME280;57054;51.978;4.498;2022-11-03T09:16:28;100592.50;;;12.15;93.71
69784;BME280;57054;51.978;4.498;2022-11-03T09:18:54;100589.78;;;12.16;93.72
69784;BME280;57054;51.978;4.498;2022-11-03T09:21:19;100595.88;;;12.17;93.81
69784;BME280;57054;51.978;4.498;2022-11-03T09:23:44;100583.63;;;12.17;93.72
69784;BME280;57054;51.978;4.498;2022-11-03T09:26:09;100579.22;;;12.18;93.99
69784;BME280;57054;51.978;4.498;2022-11-03T09:28:35;100572.19;;;12.18;93.89
69784;BME280;57054;51.978;4.498;2022-11-03T09:31:00;100578.31;;;12.19;94.01
69784;BME280;57054;51.978;4.498;2022-11-03T09:33:26;100569.47;;;12.20;93.81
69784;BME280;57054;51.978;4.498;2022-11-03T09:35:51;100572.03;;;12.21;94.07
69784;BME280;57054;51.978;4.498;2022-11-03T09:38:16;100569.41;;;12.21;94.24
69784;BME280;57054;51.978;4.498;2022-11-03T09:40:42;100569.34;;;12.23;93.86
69784;BME280;57054;51.978;4.498;2022-11-03T09:43:07;100568.38;;;12.24;93.75
69784;BME280;57054;51.978;4.498;2022-11-03T09:45:32;100565.69;;;12.25;93.73
69784;BME280;57054;51.978;4.498;2022-11-03T09:47:58;100556.03;;;12.26;93.82
69784;BME280;57054;51.978;4.498;2022-11-03T09:50:23;100536.72;;;12.27;93.77
69784;BME280;57054;51.978;4.498;2022-11-03T09:52:48;100548.06;;;12.27;93.50
69784;BME280;57054;51.978;4.498;2022-11-03T09:55:17;100540.13;;;12.29;93.42
69784;BME280;57054;51.978;4.498;2022-11-03T09:57:44;100533.09;;;12.29;93.48
69784;BME280;57054;51.978;4.498;2022-11-03T10:00:15;100533.09;;;12.29;93.19
69784;BME280;57054;51.978;4.498;2022-11-03T10:02:42;100527.75;;;12.31;93.29
69784;BME280;57054;51.978;4.498;2022-11-03T10:05:07;100523.38;;;12.32;92.95
69784;BME280;57054;51.978;4.498;2022-11-03T10:07:36;100532.94;;;12.33;92.95
69784;BME280;57054;51.978;4.498;2022-11-03T10:10:01;100525.06;;;12.33;93.11
69784;BME280;57054;51.978;4.498;2022-11-03T10:12:27;100514.47;;;12.34;93.13
69784;BME280;57054;51.978;4.498;2022-11-03T10:14:54;100509.22;;;12.34;93.13
69784;BME280;57054;51.978;4.498;2022-11-03T10:17:20;100509.16;;;12.36;93.13
69784;BME280;57054;51.978;4.498;2022-11-03T10:19:48;100496.00;;;12.36;92.73
69784;BME280;57054;51.978;4.498;2022-11-03T10:22:15;100486.34;;;12.36;92.44
69784;BME280;57054;51.978;4.498;2022-11-03T10:24:40;100478.41;;;12.38;92.32
69784;BME280;57054;51.978;4.498;2022-11-03T10:27:18;100476.69;;;12.37;92.44
69784;BME280;57054;51.978;4.498;2022-11-03T10:29:44;100473.97;;;12.38;92.46
69784;BME280;57054;51.978;4.498;2022-11-03T10:32:14;100480.94;;;12.39;92.33
69784;BME280;57054;51.978;4.498;2022-11-03T10:34:52;100477.38;;;12.40;92.09
69784;BME280;57054;51.978;4.498;2022-11-03T10:37:18;100466.88;;;12.40;92.19
69784;BME280;57054;51.978;4.498;2022-11-03T10:39:50;100464.16;;;12.42;92.10
69784;BME280;57054;51.978;4.498;2022-11-03T10:42:20;100455.38;;;12.43;91.94
69784;BME280;57054;51.978;4.498;2022-11-03T10:44:46;100447.47;;;12.43;92.04
69784;BME280;57054;51.978;4.498;2022-11-03T10:47:21;100435.19;;;12.43;92.33
69784;BME280;57054;51.978;4.498;2022-11-03T10:49:46;100436.91;;;12.44;92.21
69784;BME280;57054;51.978;4.498;2022-11-03T10:52:19;100443.00;;;12.45;91.93
69784;BME280;57054;51.978;4.498;2022-11-03T10:54:45;100435.03;;;12.46;91.89
69784;BME280;57054;51.978;4.498;2022-11-03T10:57:11;100438.41;;;12.48;91.89
69784;BME280;57054;51.978;4.498;2022-11-03T10:59:37;100430.47;;;12.50;91.52
69784;BME280;57054;51.978;4.498;2022-11-03T11:02:07;100412.91;;;12.51;91.88
69784;BME280;57054;51.978;4.498;2022-11-03T11:04:35;100433.00;;;12.52;91.86
69784;BME280;57054;51.978;4.498;2022-11-03T11:07:00;100424.19;;;12.53;91.58
69784;BME280;57054;51.978;4.498;2022-11-03T11:09:26;100431.13;;;12.54;91.56
69784;BME280;57054;51.978;4.498;2022-11-03T11:16:53;100418.75;;;12.56;91.31
69784;BME280;57054;51.978;4.498;2022-11-03T11:19:18;100419.59;;;12.56;91.25
69784;BME280;57054;51.978;4.498;2022-11-03T11:24:11;100388.00;;;12.58;90.91
69784;BME280;57054;51.978;4.498;2022-11-03T11:26:37;100392.34;;;12.59;90.99
69784;BME280;57054;51.978;4.498;2022-11-03T11:31:42;100380.03;;;12.59;90.99
69784;BME280;57054;51.978;4.498;2022-11-03T11:36:33;100368.50;;;12.62;90.78
69784;BME280;57054;51.978;4.498;2022-11-03T11:38:59;100361.38;;;12.64;90.96
69784;BME280;57054;51.978;4.498;2022-11-03T11:46:53;100341.97;;;12.66;90.70
69784;BME280;57054;51.978;4.498;2022-11-03T11:49:20;100334.94;;;12.67;90.63
69784;BME280;57054;51.978;4.498;2022-11-03T11:51:45;100327.91;;;12.67;90.18
69784;BME280;57054;51.978;4.498;2022-11-03T11:54:12;100330.44;;;12.69;90.56
69784;BME280;57054;51.978;4.498;2022-11-03T11:56:43;100315.50;;;12.70;90.43
69784;BME280;57054;51.978;4.498;2022-11-03T11:59:16;100304.06;;;12.71;90.76
69784;BME280;57054;51.978;4.498;2022-11-03T12:01:43;100302.28;;;12.71;90.81
69784;BME280;57054;51.978;4.498;2022-11-03T12:04:19;100295.28;;;12.72;90.57
69784;BME280;57054;51.978;4.498;2022-11-03T12:06:46;100277.72;;;12.72;90.61
69784;BME280;57054;51.978;4.498;2022-11-03T12:12:10;100267.13;;;12.74;90.23
69784;BME280;57054;51.978;4.498;2022-11-03T12:19:48;100284.47;;;12.76;90.80
69784;BME280;57054;51.978;4.498;2022-11-03T12:29:47;100266.66;;;12.81;90.32
69784;BME280;57054;51.978;4.498;2022-11-03T12:32:13;100258.78;;;12.81;89.93
69784;BME280;57054;51.978;4.498;2022-11-03T12:34:38;100246.41;;;12.83;90.13
69784;BME280;57054;51.978;4.498;2022-11-03T12:37:03;100237.59;;;12.84;90.04
69784;BME280;57054;51.978;4.498;2022-11-03T12:39:29;100233.91;;;12.87;90.26
69784;BME280;57054;51.978;4.498;2022-11-03T12:41:54;100227.75;;;12.88;89.92
69784;BME280;57054;51.978;4.498;2022-11-03T12:44:20;100218.81;;;12.91;89.75
69784;BME280;57054;51.978;4.498;2022-11-03T12:46:45;100216.84;;;12.94;89.59
69784;BME280;57054;51.978;4.498;2022-11-03T12:49:11;100207.91;;;12.97;89.58
69784;BME280;57054;51.978;4.498;2022-11-03T12:51:36;100204.19;;;13.01;89.62
69784;BME280;57054;51.978;4.498;2022-11-03T12:54:01;100194.34;;;13.04;89.88
69784;BME280;57054;51.978;4.498;2022-11-03T12:56:26;100197.72;;;13.06;89.78
69784;BME280;57054;51.978;4.498;2022-11-03T12:58:52;100190.56;;;13.09;89.75
69784;BME280;57054;51.978;4.498;2022-11-03T13:01:17;100185.22;;;13.10;89.21
69784;BME280;57054;51.978;4.498;2022-11-03T13:03:42;100174.63;;;13.12;89.08
69784;BME280;57054;51.978;4.498;2022-11-03T13:06:08;100163.97;;;13.13;89.39
69784;BME280;57054;51.978;4.498;2022-11-03T13:08:35;100170.03;;;13.15;89.63
69784;BME280;57054;51.978;4.498;2022-11-03T13:11:01;100157.72;;;13.16;89.98
69784;BME280;57054;51.978;4.498;2022-11-03T13:13:26;100140.03;;;13.18;89.50
69784;BME280;57054;51.978;4.498;2022-11-03T13:15:52;100135.63;;;13.18;89.40
69784;BME280;57054;51.978;4.498;2022-11-03T13:18:18;100132.06;;;13.19;89.63
69784;BME280;57054;51.978;4.498;2022-11-03T13:20:44;100125.84;;;13.20;89.46
69784;BME280;57054;51.978;4.498;2022-11-03T13:23:09;100124.94;;;13.21;89.69
69784;BME280;57054;51.978;4.498;2022-11-03T13:25:34;100135.44;;;13.21;89.21
69784;BME280;57054;51.978;4.498;2022-11-03T13:28:00;100131.88;;;13.22;88.28
69784;BME280;57054;51.978;4.498;2022-11-03T13:30:27;100119.47;;;13.24;89.10
69784;BME280;57054;51.978;4.498;2022-11-03T13:32:53;100119.47;;;13.24;88.68
69784;BME280;57054;51.978;4.498;2022-11-03T13:35:18;100115.91;;;13.25;89.21
69784;BME280;57054;51.978;4.498;2022-11-03T13:37:44;100116.72;;;13.26;88.92
69784;BME280;57054;51.978;4.498;2022-11-03T13:40:10;100128.13;;;13.27;89.09
69784;BME280;57054;51.978;4.498;2022-11-03T13:42:36;100134.13;;;13.29;89.29
69784;BME280;57054;51.978;4.498;2022-11-03T13:45:02;100128.03;;;13.28;89.33
69784;BME280;57054;51.978;4.498;2022-11-03T13:47:27;100117.59;;;13.27;88.37
69784;BME280;57054;51.978;4.498;2022-11-03T13:49:52;100112.34;;;13.27;88.16
69784;BME280;57054;51.978;4.498;2022-11-03T13:52:18;100111.38;;;13.28;88.18
69784;BME280;57054;51.978;4.498;2022-11-03T13:54:43;100103.50;;;13.28;88.47
69784;BME280;57054;51.978;4.498;2022-11-03T13:57:08;100106.03;;;13.29;88.47
69784;BME280;57054;51.978;4.498;2022-11-03T13:59:34;100097.31;;;13.29;88.45